East Lake, Colorado
Current Conditions -  °F | °C
As of 2:35 PM on Friday 31 Oct 2014 (Local Time) from KEIK Reporting Station
Clear Clear  
Wind Chill: 53°   Ceiling: Unl
Heat Index: 53°   Visibility: 10mi
Dew Point: 29°   Wind: 5mph
Humidity: 39%   Direction: 280°W
Pressure: 30.16"   Gusts: NA
Location:  39.929°N, 104.953°W
Report Text: KEIK 312035Z AUTO 28004KT 10SM CLR 12/M02 A3016 RMK AO2 T01161019
Loading
Personal Weather Stations






























Interactive Weather Map
Tropical Storm Tracking
New forecast layout! Learn more

10-Day Weather Forecast

Advertisements
Track Severe Weather on mobile